Grand Duke — 3ECP7 — position and weather

sailwx.info

Track history (hours):
 
Tides and Currents Weather Stations Pressure Air Temp Water Temp Dewpoint Dewpoint Depression Visibility Wind Speed Wind Dir Waves Ship Positions

Grand Duke

Last reported at 2017-Oct-31 12:11 UTC. Time now 2017-Nov-19 10:15 UTC.
Position N 05°35' E 000°30'.
Warning: this ship's position is 18 days out of date.

Length 199 m; draft 8.2 m.

Type: Cargo ship. MMSI: 371384000.

Date/timePositionNaut miles runAvg speedWind from/ knotsBaromVisibWave heightAir tempDewpointWater temp
2017-Oct-31 12:11N 05°35' E 000°30'317.7
2017-Oct-31 12:00N 05°35' E 000°26'917.8
2017-Oct-31 11:30N 05°36' E 000°17'917.8
2017-Oct-31 11:00N 05°36' E 000°09'613.0
2017-Oct-31 10:31N 05°37' E 000°02'2 3.7
2017-Oct-31 10:00N 05°38' E 000°00'0 0.0
2017-Oct-31 09:24N 05°38' E 000°00'0 0.0
2017-Oct-31 09:00N 05°38' E 000°00'0 0.0
2017-Oct-31 08:30N 05°38' E 000°00'0 0.0
2017-Oct-31 08:00N 05°38' E 000°00'0 0.0
2017-Oct-31 07:30N 05°38' E 000°00'0 0.0
2017-Oct-31 07:00N 05°38' E 000°00'0 0.0
2017-Oct-31 06:30N 05°38' E 000°00'0 0.0
2017-Oct-31 06:00N 05°38' E 000°00'0 0.0
2017-Oct-31 05:30N 05°38' E 000°00'0 0.0
2017-Oct-31 05:00N 05°38' E 000°00'0 0.0
2017-Oct-31 04:30N 05°38' E 000°00'0 0.0
2017-Oct-31 04:00N 05°38' E 000°00'0 0.0
2017-Oct-31 03:30N 05°38' E 000°00'0 0.0
2017-Oct-31 03:00N 05°38' E 000°00'0 0.0
2017-Oct-31 02:30N 05°38' E 000°00'0 0.6
2017-Oct-31 02:00N 05°38' E 000°01'2 3.3
2017-Oct-31 01:30N 05°38' E 000°02'1 1.6
2017-Oct-31 01:00N 05°37' E 000°02'611.1
2017-Oct-31 00:30N 05°33' E 000°06'713.1
2017-Oct-31 00:01N 05°30' E 000°12'816.4
2017-Oct-30 23:31N 05°31' E 000°20'816.7
2017-Oct-30 23:00N 05°32' E 000°28'  
2017-Oct-25 14:53N 12°47' W 018°58'4416.3
2017-Oct-25 12:11N 13°22' W 019°25'316.4
2017-Oct-25 11:59N 13°24' W 019°27'1216.4
2017-Oct-25 11:16N 13°33' W 019°34'3015.9
2017-Oct-25 09:23N 13°57' W 019°53'716.1
2017-Oct-25 08:57N 14°03' W 019°58'716.1
2017-Oct-25 08:29N 14°09' W 020°03'816.1
2017-Oct-25 08:00N 14°15' W 020°07'916.2
2017-Oct-25 07:27N 14°22' W 020°13'716.3
2017-Oct-25 06:59N 14°28' W 020°18'816.2
2017-Oct-25 06:29N 14°34' W 020°23'816.1
2017-Oct-25 05:59N 14°41' W 020°28'816.1
2017-Oct-25 05:29N 14°47' W 020°33'816.0
2017-Oct-25 04:59N 14°53' W 020°38'816.3
2017-Oct-25 04:30N 14°60' W 020°43'816.1
2017-Oct-25 04:00N 15°06' W 020°48'816.0
2017-Oct-25 03:30N 15°13' W 020°53'816.1
2017-Oct-25 02:59N 15°19' W 020°58'816.2
2017-Oct-25 02:29N 15°25' W 021°03'916.1
2017-Oct-25 01:57N 15°32' W 021°09'715.8
2017-Oct-25 01:30N 15°37' W 021°14'816.1
2017-Oct-25 01:00N 15°44' W 021°19'816.3
2017-Oct-25 00:30N 15°50' W 021°24'816.3
2017-Oct-24 23:59N 15°57' W 021°29'816.4
2017-Oct-24 23:29N 16°04' W 021°34'816.0
2017-Oct-24 22:59N 16°10' W 021°39'815.9
2017-Oct-24 22:29N 16°17' W 021°44'816.2
2017-Oct-24 22:00N 16°23' W 021°49'816.3
2017-Oct-24 21:30N 16°29' W 021°55'816.3
2017-Oct-24 20:59N 16°35' W 022°00'916.7
2017-Oct-24 20:27N 16°42' W 022°06'816.6
2017-Oct-24 19:59N 16°48' W 022°11'816.6
2017-Oct-24 19:29N 16°55' W 022°16'816.5
2017-Oct-24 18:59N 17°01' W 022°22'816.5
2017-Oct-24 18:30N 17°08' W 022°27'816.0
2017-Oct-24 17:59N 17°12' W 022°34'816.3
2017-Oct-24 17:29N 17°18' W 022°40'816.3
2017-Oct-24 16:59N 17°25' W 022°45'816.2
2017-Oct-24 16:29N 17°30' W 022°52'816.2
2017-Oct-24 15:59N 17°35' W 022°59'816.3
2017-Oct-24 15:30N 17°40' W 023°05'916.4
2017-Oct-24 14:59N 17°45' W 023°12'816.3
2017-Oct-24 14:30N 17°50' W 023°18'816.3
2017-Oct-24 14:00N 17°55' W 023°25'816.5
2017-Oct-24 13:30N 17°60' W 023°32'1116.6
2017-Oct-24 12:49N 18°07' W 023°41'3116.4
2017-Oct-24 10:57N 18°26' W 024°07'  
Track history (hours):
 
Tides and Currents Weather Stations Pressure Air Temp Water Temp Dewpoint Dewpoint Depression Visibility Wind Speed Wind Dir Waves Ship Positions

Grand Duke

Last reported at 2017-Oct-31 12:11 UTC. Time now 2017-Nov-19 10:15 UTC.
Position N 05°35' E 000°30'.
Warning: this ship's position is 18 days out of date.

Length 199 m; draft 8.2 m.

Type: Cargo ship. MMSI: 371384000.

Date/timePositionNaut miles runAvg speedWind from/ knotsBaromVisibWave heightAir tempDewpointWater temp
2017-Oct-31 12:11N 05°35' E 000°30'317.7
2017-Oct-31 12:00N 05°35' E 000°26'917.8
2017-Oct-31 11:30N 05°36' E 000°17'917.8
2017-Oct-31 11:00N 05°36' E 000°09'613.0
2017-Oct-31 10:31N 05°37' E 000°02'2 3.7
2017-Oct-31 10:00N 05°38' E 000°00'0 0.0
2017-Oct-31 09:24N 05°38' E 000°00'0 0.0
2017-Oct-31 09:00N 05°38' E 000°00'0 0.0
2017-Oct-31 08:30N 05°38' E 000°00'0 0.0
2017-Oct-31 08:00N 05°38' E 000°00'0 0.0
2017-Oct-31 07:30N 05°38' E 000°00'0 0.0
2017-Oct-31 07:00N 05°38' E 000°00'0 0.0
2017-Oct-31 06:30N 05°38' E 000°00'0 0.0
2017-Oct-31 06:00N 05°38' E 000°00'0 0.0
2017-Oct-31 05:30N 05°38' E 000°00'0 0.0
2017-Oct-31 05:00N 05°38' E 000°00'0 0.0
2017-Oct-31 04:30N 05°38' E 000°00'0 0.0
2017-Oct-31 04:00N 05°38' E 000°00'0 0.0
2017-Oct-31 03:30N 05°38' E 000°00'0 0.0
2017-Oct-31 03:00N 05°38' E 000°00'0 0.0
2017-Oct-31 02:30N 05°38' E 000°00'0 0.6
2017-Oct-31 02:00N 05°38' E 000°01'2 3.3
2017-Oct-31 01:30N 05°38' E 000°02'1 1.6
2017-Oct-31 01:00N 05°37' E 000°02'611.1
2017-Oct-31 00:30N 05°33' E 000°06'713.1
2017-Oct-31 00:01N 05°30' E 000°12'816.4
2017-Oct-30 23:31N 05°31' E 000°20'816.7
2017-Oct-30 23:00N 05°32' E 000°28'  
2017-Oct-25 14:53N 12°47' W 018°58'4416.3
2017-Oct-25 12:11N 13°22' W 019°25'316.4
2017-Oct-25 11:59N 13°24' W 019°27'1216.4
2017-Oct-25 11:16N 13°33' W 019°34'3015.9
2017-Oct-25 09:23N 13°57' W 019°53'716.1
2017-Oct-25 08:57N 14°03' W 019°58'716.1
2017-Oct-25 08:29N 14°09' W 020°03'816.1
2017-Oct-25 08:00N 14°15' W 020°07'916.2
2017-Oct-25 07:27N 14°22' W 020°13'716.3
2017-Oct-25 06:59N 14°28' W 020°18'816.2
2017-Oct-25 06:29N 14°34' W 020°23'816.1
2017-Oct-25 05:59N 14°41' W 020°28'816.1
2017-Oct-25 05:29N 14°47' W 020°33'816.0
2017-Oct-25 04:59N 14°53' W 020°38'816.3
2017-Oct-25 04:30N 14°60' W 020°43'816.1
2017-Oct-25 04:00N 15°06' W 020°48'816.0
2017-Oct-25 03:30N 15°13' W 020°53'816.1
2017-Oct-25 02:59N 15°19' W 020°58'816.2
2017-Oct-25 02:29N 15°25' W 021°03'916.1
2017-Oct-25 01:57N 15°32' W 021°09'715.8
2017-Oct-25 01:30N 15°37' W 021°14'816.1
2017-Oct-25 01:00N 15°44' W 021°19'816.3
2017-Oct-25 00:30N 15°50' W 021°24'816.3
2017-Oct-24 23:59N 15°57' W 021°29'816.4
2017-Oct-24 23:29N 16°04' W 021°34'816.0
2017-Oct-24 22:59N 16°10' W 021°39'815.9
2017-Oct-24 22:29N 16°17' W 021°44'816.2
2017-Oct-24 22:00N 16°23' W 021°49'816.3
2017-Oct-24 21:30N 16°29' W 021°55'816.3
2017-Oct-24 20:59N 16°35' W 022°00'916.7
2017-Oct-24 20:27N 16°42' W 022°06'816.6
2017-Oct-24 19:59N 16°48' W 022°11'816.6
2017-Oct-24 19:29N 16°55' W 022°16'816.5
2017-Oct-24 18:59N 17°01' W 022°22'816.5
2017-Oct-24 18:30N 17°08' W 022°27'816.0
2017-Oct-24 17:59N 17°12' W 022°34'816.3
2017-Oct-24 17:29N 17°18' W 022°40'816.3
2017-Oct-24 16:59N 17°25' W 022°45'816.2
2017-Oct-24 16:29N 17°30' W 022°52'816.2
2017-Oct-24 15:59N 17°35' W 022°59'816.3
2017-Oct-24 15:30N 17°40' W 023°05'916.4
2017-Oct-24 14:59N 17°45' W 023°12'816.3
2017-Oct-24 14:30N 17°50' W 023°18'816.3
2017-Oct-24 14:00N 17°55' W 023°25'816.5
2017-Oct-24 13:30N 17°60' W 023°32'1116.6
2017-Oct-24 12:49N 18°07' W 023°41'3116.4
2017-Oct-24 10:57N 18°26' W 024°07'  

Dump ship's entire track history